Time;durP1;ratioP1;P1;durP2;ratioP2;P2;SDS_P1;SDS_P2;PMS_P1;PMS_P2;Temp;Humidity;BMP_temperature;BMP_pressure;BME280_temperature;BME280_humidity;BME280_pressure;Samples;Min_cycle;Max_cycle;Signal;HPM_P1;HPM_P2
2022/12/01 00:01:27;;;;;;;8.00;1.97;;;21.20;99.90;;;;;;4937619;29;20264;-69
2022/12/01 00:03:55;;;;;;;5.80;1.80;;;21.30;99.90;;;;;;4937338;29;20176;-69
2022/12/01 00:06:23;;;;;;;7.07;1.87;;;21.30;99.90;;;;;;4937258;29;20203;-69
2022/12/01 00:11:45;;;;;;;10.97;2.23;;;21.30;99.90;;;;;;4907015;29;20650;-69
2022/12/01 00:14:15;;;;;;;10.03;2.20;;;21.30;99.90;;;;;;4937047;29;20189;-70
2022/12/01 00:16:43;;;;;;;12.03;2.73;;;21.30;99.90;;;;;;4936998;29;20207;-70
2022/12/01 00:19:11;;;;;;;14.17;2.47;;;21.20;99.90;;;;;;4936868;29;20196;-70
2022/12/01 00:21:38;;;;;;;14.53;2.53;;;21.10;99.90;;;;;;4937075;29;20279;-70
2022/12/01 00:24:09;;;;;;;13.70;2.73;;;21.00;99.90;;;;;;4937067;29;20215;-70
2022/12/01 00:26:38;;;;;;;10.73;3.20;;;21.00;99.90;;;;;;4936911;29;20646;-71
2022/12/01 00:29:06;;;;;;;8.37;1.90;;;21.00;99.90;;;;;;4937111;29;20306;-71
2022/12/01 00:31:33;;;;;;;10.77;2.10;;;20.90;99.90;;;;;;4937321;29;20177;-69
2022/12/01 00:34:01;;;;;;;16.47;2.33;;;21.00;99.90;;;;;;4935072;29;20191;-70
2022/12/01 00:36:29;;;;;;;8.70;1.83;;;20.90;99.90;;;;;;4936195;29;20271;-70
2022/12/01 00:38:57;;;;;;;12.40;2.50;;;20.80;99.90;;;;;;4937068;29;20190;-69
2022/12/01 00:41:26;;;;;;;13.03;2.00;;;20.70;99.90;;;;;;4936420;29;20551;-71
2022/12/01 00:43:53;;;;;;;16.73;2.67;;;20.70;99.90;;;;;;4936614;29;20196;-69
2022/12/01 00:46:21;;;;;;;12.43;2.30;;;20.70;99.90;;;;;;4936473;29;20694;-70
2022/12/01 00:48:49;;;;;;;6.70;2.03;;;20.80;99.90;;;;;;4936706;29;20284;-70
2022/12/01 00:51:17;;;;;;;12.13;2.30;;;20.90;99.90;;;;;;4936367;29;20601;-70
2022/12/01 00:53:44;;;;;;;8.40;2.00;;;20.80;99.90;;;;;;4936212;29;20193;-70
2022/12/01 00:56:12;;;;;;;10.47;2.40;;;20.80;99.90;;;;;;4935909;29;20641;-69
2022/12/01 00:58:40;;;;;;;11.00;2.67;;;20.80;99.90;;;;;;4935824;29;20188;-69
2022/12/01 01:01:08;;;;;;;10.40;2.43;;;20.90;99.90;;;;;;4936374;29;20568;-69
2022/12/01 01:03:36;;;;;;;8.23;2.20;;;20.90;99.90;;;;;;4936467;29;20186;-70
2022/12/01 01:06:12;;;;;;;10.43;2.20;;;20.90;99.90;;;;;;4936528;29;20188;-69
2022/12/01 01:08:40;;;;;;;7.90;2.17;;;20.80;99.90;;;;;;4919817;29;20227;-69
2022/12/01 01:11:08;;;;;;;10.20;2.63;;;20.70;99.90;;;;;;4940051;29;20220;-69
2022/12/01 01:13:37;;;;;;;9.23;2.20;;;20.70;99.90;;;;;;4941906;29;20188;-70
2022/12/01 01:16:07;;;;;;;8.73;2.27;;;20.90;99.90;;;;;;4951382;29;20185;-68
2022/12/01 01:18:35;;;;;;;9.23;2.50;;;20.90;99.90;;;;;;4935879;29;20285;-69
2022/12/01 01:21:07;;;;;;;11.30;2.20;;;21.00;99.90;;;;;;4936709;29;20199;-69
2022/12/01 01:23:35;;;;;;;11.17;1.90;;;21.10;99.90;;;;;;4936578;29;20210;-70
2022/12/01 01:26:18;;;;;;;10.83;2.37;;;21.20;99.90;;;;;;4935686;29;20202;-70
2022/12/01 01:28:46;;;;;;;7.97;2.30;;;21.30;99.90;;;;;;4935691;29;20245;-70
2022/12/01 01:31:19;;;;;;;11.70;2.27;;;21.50;99.90;;;;;;4935825;29;20593;-70
2022/12/01 01:33:47;;;;;;;7.83;2.17;;;21.40;99.90;;;;;;4935812;29;20188;-71
2022/12/01 01:36:16;;;;;;;9.03;1.80;;;21.50;99.90;;;;;;4936151;29;20225;-70
2022/12/01 01:38:45;;;;;;;8.93;1.97;;;21.50;99.90;;;;;;4935766;29;20219;-70
2022/12/01 01:41:13;;;;;;;9.73;2.03;;;21.60;99.90;;;;;;4933955;29;20232;-70
2022/12/01 01:44:04;;;;;;;13.57;2.63;;;21.60;99.90;;;;;;4935445;29;20201;-70
2022/12/01 01:46:33;;;;;;;8.73;1.97;;;21.70;99.90;;;;;;4934703;29;20240;-70
2022/12/01 01:49:06;;;;;;;15.57;2.37;;;21.80;99.90;;;;;;4934114;29;20216;-70
2022/12/01 01:51:40;;;;;;;8.57;2.00;;;21.90;99.90;;;;;;4932111;29;20275;-70
2022/12/01 01:54:30;;;;;;;10.70;1.90;;;21.90;99.90;;;;;;4935644;29;20184;-69
2022/12/01 01:57:01;;;;;;;6.33;1.70;;;22.00;99.90;;;;;;4935255;29;20216;-69
2022/12/01 01:59:33;;;;;;;7.17;1.97;;;22.20;99.90;;;;;;4935204;29;20189;-69
2022/12/01 02:02:07;;;;;;;9.63;2.27;;;22.20;99.90;;;;;;4935317;29;20190;-70
2022/12/01 02:04:47;;;;;;;6.37;2.07;;;22.40;99.90;;;;;;4933215;29;20229;-68
2022/12/01 02:07:17;;;;;;;13.30;2.87;;;22.60;99.90;;;;;;4934985;29;20188;-69
2022/12/01 02:09:45;;;;;;;7.57;2.10;;;22.70;99.90;;;;;;4935031;29;20207;-69
2022/12/01 02:12:46;;;;;;;13.90;2.73;;;22.70;99.90;;;;;;4935304;29;20627;-69
2022/12/01 02:15:32;;;;;;;14.47;2.40;;;22.60;99.90;;;;;;4934056;29;20598;-70
2022/12/01 02:18:33;;;;;;;9.23;2.47;;;22.60;99.90;;;;;;4934521;29;20652;-69
2022/12/01 02:21:26;;;;;;;7.33;2.10;;;22.60;99.90;;;;;;4935318;29;20176;-68
2022/12/01 02:24:31;;;;;;;11.20;2.93;;;22.60;99.90;;;;;;4935178;29;20231;-68
2022/12/01 02:27:27;;;;;;;7.90;2.17;;;22.40;99.90;;;;;;4934823;29;20219;-69
2022/12/01 02:30:07;;;;;;;7.93;1.83;;;22.60;99.90;;;;;;4935220;29;20185;-69
2022/12/01 02:32:55;;;;;;;8.73;2.20;;;22.80;99.90;;;;;;4934588;29;20180;-69
2022/12/01 02:35:33;;;;;;;5.97;1.90;;;22.90;99.90;;;;;;4935923;29;20182;-69
2022/12/01 02:38:11;;;;;;;7.77;2.23;;;23.00;99.90;;;;;;4919068;29;20187;-68
2022/12/01 02:41:00;;;;;;;9.77;2.70;;;23.10;99.90;;;;;;4934363;29;20256;-69
2022/12/01 02:43:54;;;;;;;6.73;2.00;;;22.90;99.90;;;;;;4934916;29;20212;-69
2022/12/01 02:46:43;;;;;;;5.90;1.93;;;22.80;99.90;;;;;;4912269;29;20236;-68
2022/12/01 02:49:19;;;;;;;5.73;2.00;;;22.70;99.90;;;;;;4934678;29;20246;-69
2022/12/01 02:51:50;;;;;;;10.27;2.27;;;22.80;99.90;;;;;;4934512;29;20170;-68
2022/12/01 02:54:19;;;;;;;9.20;2.43;;;23.30;99.90;;;;;;4933798;29;20191;-69
2022/12/01 02:56:50;;;;;;;4.03;1.40;;;23.60;99.90;;;;;;4935031;29;20199;-69
2022/12/01 02:59:18;;;;;;;7.57;1.90;;;24.10;99.90;;;;;;4934502;29;20182;-69
2022/12/01 03:02:03;;;;;;;7.20;2.00;;;24.20;99.90;;;;;;4933843;29;20658;-68
2022/12/01 03:04:33;;;;;;;7.90;1.87;;;24.00;99.90;;;;;;4953701;29;20612;-69
2022/12/01 03:07:42;;;;;;;9.20;2.43;;;24.10;99.90;;;;;;4953891;29;20265;-68
2022/12/01 03:10:19;;;;;;;10.00;2.10;;;24.10;99.90;;;;;;4953077;29;20247;-69
2022/12/01 03:13:09;;;;;;;9.50;2.40;;;24.00;99.90;;;;;;4953573;29;20183;-68
2022/12/01 03:15:49;;;;;;;13.33;2.27;;;23.70;99.90;;;;;;4931741;29;20207;-69
2022/12/01 03:18:23;;;;;;;9.57;2.37;;;23.60;99.90;;;;;;4921293;29;20228;-70
2022/12/01 03:20:53;;;;;;;9.70;2.00;;;23.60;99.90;;;;;;4938230;29;20188;-69
2022/12/01 03:23:26;;;;;;;8.43;2.00;;;23.60;99.90;;;;;;4937955;29;20606;-70
2022/12/01 03:25:55;;;;;;;8.30;2.13;;;23.20;99.90;;;;;;4940422;29;20195;-69
2022/12/01 03:28:29;;;;;;;9.00;3.07;;;23.00;99.90;;;;;;4937517;29;20212;-69
2022/12/01 03:31:02;;;;;;;5.80;1.90;;;23.10;99.90;;;;;;4937721;29;20227;-69
2022/12/01 03:33:49;;;;;;;8.70;1.97;;;23.10;99.90;;;;;;4937689;29;20443;-69
2022/12/01 03:36:34;;;;;;;9.60;2.20;;;23.00;99.90;;;;;;4937899;29;20651;-70
2022/12/01 03:39:08;;;;;;;10.43;2.20;;;23.00;99.90;;;;;;4936713;29;20566;-70
2022/12/01 03:41:49;;;;;;;6.27;2.20;;;23.00;99.90;;;;;;4919441;29;20187;-67
2022/12/01 03:44:23;;;;;;;9.17;2.43;;;23.00;99.90;;;;;;4937661;29;20192;-70
2022/12/01 03:47:00;;;;;;;11.57;2.50;;;22.90;99.90;;;;;;4936375;29;20821;-70
2022/12/01 03:49:28;;;;;;;8.57;1.90;;;22.90;99.90;;;;;;4937191;29;20287;-70
2022/12/01 03:51:58;;;;;;;10.50;2.63;;;23.00;99.90;;;;;;4937680;29;20553;-70
2022/12/01 03:54:52;;;;;;;6.93;2.03;;;23.00;99.90;;;;;;4937018;29;20603;-71
2022/12/01 03:57:48;;;;;;;7.57;2.53;;;23.20;99.90;;;;;;4901987;29;20196;-70
2022/12/01 04:00:18;;;;;;;5.57;2.20;;;23.30;99.90;;;;;;4913572;29;20192;-69
2022/12/01 04:02:47;;;;;;;10.17;2.23;;;23.50;99.90;;;;;;4936097;29;20219;-70
2022/12/01 04:05:15;;;;;;;4.67;1.67;;;23.70;99.90;;;;;;4937650;29;20263;-69
2022/12/01 04:07:43;;;;;;;10.40;2.17;;;23.50;99.90;;;;;;4937464;29;20274;-70
2022/12/01 04:10:11;;;;;;;9.40;2.10;;;23.60;99.90;;;;;;4941382;29;20186;-71
2022/12/01 04:12:39;;;;;;;11.03;2.33;;;23.50;99.90;;;;;;4940796;29;20187;-71
2022/12/01 04:15:11;;;;;;;8.40;1.90;;;23.60;99.90;;;;;;4937280;29;20222;-70
2022/12/01 04:17:42;;;;;;;7.47;2.13;;;23.60;99.90;;;;;;4936972;29;20195;-70
2022/12/01 04:20:12;;;;;;;8.30;1.50;;;24.00;99.90;;;;;;4937504;29;20177;-69
2022/12/01 04:22:40;;;;;;;9.87;2.13;;;24.60;99.90;;;;;;4936942;29;20177;-70
2022/12/01 04:25:08;;;;;;;11.60;2.30;;;24.70;99.90;;;;;;4937114;29;20570;-70
2022/12/01 04:27:37;;;;;;;9.73;2.30;;;25.10;99.90;;;;;;4950300;29;20227;-70
2022/12/01 04:30:08;;;;;;;9.70;2.07;;;25.40;99.90;;;;;;4955993;29;20741;-70
2022/12/01 04:32:40;;;;;;;11.10;2.47;;;25.40;99.90;;;;;;4956440;29;20262;-70
2022/12/01 04:35:10;;;;;;;10.47;2.50;;;25.20;99.90;;;;;;4946177;29;20248;-69
2022/12/01 04:37:39;;;;;;;9.17;2.90;;;25.10;99.90;;;;;;4936728;29;20188;-70
2022/12/01 04:40:07;;;;;;;8.53;2.13;;;24.90;99.90;;;;;;4936777;29;20554;-69
2022/12/01 04:42:35;;;;;;;12.70;2.57;;;25.00;99.90;;;;;;4946475;29;20187;-69
2022/12/01 04:45:03;;;;;;;6.80;1.87;;;25.00;99.90;;;;;;4935423;29;20195;-70
2022/12/01 04:47:31;;;;;;;7.43;1.93;;;24.70;99.90;;;;;;4936186;29;20326;-70
2022/12/01 04:50:02;;;;;;;6.97;2.17;;;24.50;99.90;;;;;;4936670;29;20251;-69
2022/12/01 04:52:30;;;;;;;7.00;1.70;;;24.10;99.90;;;;;;4936201;29;20180;-71
2022/12/01 04:54:57;;;;;;;11.27;1.70;;;24.20;99.90;;;;;;4936440;29;20188;-70
2022/12/01 04:57:25;;;;;;;5.63;1.90;;;24.60;99.90;;;;;;4936556;29;20272;-69
2022/12/01 04:59:53;;;;;;;6.30;1.73;;;24.60;99.90;;;;;;4936508;29;20191;-70
2022/12/01 05:02:21;;;;;;;8.10;2.03;;;24.50;99.90;;;;;;4935152;29;20596;-70
2022/12/01 05:04:48;;;;;;;10.00;2.03;;;24.20;99.90;;;;;;4936207;29;20191;-69
2022/12/01 05:07:17;;;;;;;10.83;2.53;;;23.90;99.90;;;;;;4936196;29;20199;-70
2022/12/01 05:09:44;;;;;;;10.53;1.97;;;23.80;99.90;;;;;;4936335;29;20191;-69
2022/12/01 05:12:12;;;;;;;6.27;1.83;;;23.80;99.90;;;;;;4917592;29;20268;-70
2022/12/01 05:14:40;;;;;;;11.53;2.60;;;23.70;99.90;;;;;;4917299;29;20198;-70
2022/12/01 05:17:08;;;;;;;6.93;1.70;;;23.70;99.90;;;;;;4922933;29;20203;-70
2022/12/01 05:22:21;;;;;;;6.93;2.23;;;23.60;99.90;;;;;;4923634;29;20283;-69
2022/12/01 05:24:49;;;;;;;9.23;2.17;;;23.50;99.90;;;;;;4936129;29;20601;-69
2022/12/01 05:27:17;;;;;;;9.77;2.47;;;23.60;99.90;;;;;;4934751;29;20642;-70
2022/12/01 05:29:45;;;;;;;11.27;2.17;;;23.60;99.90;;;;;;4935417;29;20206;-70
2022/12/01 05:32:12;;;;;;;17.93;2.40;;;23.60;99.90;;;;;;4935777;29;20532;-70
2022/12/01 05:34:40;;;;;;;6.30;1.73;;;23.60;99.90;;;;;;4936099;29;20638;-69
2022/12/01 05:37:08;;;;;;;4.20;1.70;;;23.80;99.90;;;;;;4935204;29;20188;-70
2022/12/01 05:39:36;;;;;;;8.90;1.70;;;23.60;99.90;;;;;;4918458;29;20207;-69
2022/12/01 05:42:03;;;;;;;4.77;1.43;;;23.50;99.90;;;;;;4935596;29;20188;-69
2022/12/01 05:44:31;;;;;;;10.17;1.63;;;23.40;99.90;;;;;;4935446;29;20266;-69
2022/12/01 05:46:59;;;;;;;5.33;1.90;;;23.40;99.90;;;;;;4918539;29;20240;-69
2022/12/01 05:49:27;;;;;;;5.30;1.90;;;23.70;99.90;;;;;;4935240;29;20224;-70
2022/12/01 05:51:54;;;;;;;7.20;2.10;;;23.80;99.90;;;;;;4935386;29;20233;-68
2022/12/01 05:54:22;;;;;;;7.73;1.80;;;23.70;99.90;;;;;;4935826;29;20287;-69
2022/12/01 05:56:50;;;;;;;5.33;1.53;;;23.50;99.90;;;;;;4935597;29;20192;-68
2022/12/01 05:59:18;;;;;;;8.13;2.07;;;23.50;99.90;;;;;;4935260;29;20195;-69
2022/12/01 06:01:46;;;;;;;8.07;2.17;;;23.60;99.90;;;;;;4935678;29;20183;-70
2022/12/01 06:04:14;;;;;;;8.80;1.90;;;23.50;99.90;;;;;;4935396;29;20214;-70
2022/12/01 06:06:41;;;;;;;4.43;1.67;;;23.40;99.90;;;;;;4935251;29;20191;-70
2022/12/01 06:09:09;;;;;;;8.13;1.70;;;23.40;99.90;;;;;;4934987;29;20291;-70
2022/12/01 06:11:37;;;;;;;7.33;1.60;;;23.30;99.90;;;;;;4935123;29;21050;-69
2022/12/01 06:14:05;;;;;;;6.83;1.60;;;23.40;99.90;;;;;;4934941;29;20198;-69
2022/12/01 06:16:33;;;;;;;8.30;1.40;;;23.20;99.90;;;;;;4935174;29;20247;-67
2022/12/01 06:19:00;;;;;;;5.33;1.60;;;23.20;99.90;;;;;;4935367;29;20596;-69
2022/12/01 06:21:28;;;;;;;7.73;1.70;;;23.10;99.90;;;;;;4934602;29;20260;-68
2022/12/01 06:23:56;;;;;;;6.37;1.70;;;23.10;99.90;;;;;;4935165;29;20184;-69
2022/12/01 06:26:24;;;;;;;4.50;1.90;;;22.90;99.90;;;;;;4935243;29;20259;-69
2022/12/01 06:28:51;;;;;;;5.13;1.30;;;22.70;99.90;;;;;;4934596;29;20220;-69
2022/12/01 06:31:19;;;;;;;7.47;2.00;;;22.80;99.90;;;;;;4934949;29;21930;-69
2022/12/01 06:33:47;;;;;;;8.13;1.93;;;22.80;99.90;;;;;;4934905;29;20196;-69
2022/12/01 06:36:15;;;;;;;7.23;2.07;;;22.80;99.90;;;;;;4946677;29;20250;-70
2022/12/01 06:38:42;;;;;;;8.40;1.57;;;22.80;99.90;;;;;;4939184;29;20188;-70
2022/12/01 06:41:10;;;;;;;12.10;1.60;;;22.80;99.90;;;;;;4934501;29;20704;-71
2022/12/01 06:43:38;;;;;;;2.90;1.20;;;22.70;99.90;;;;;;4934146;29;20242;-70
2022/12/01 06:46:06;;;;;;;4.37;1.40;;;22.60;99.90;;;;;;4934686;29;20714;-69
2022/12/01 06:48:34;;;;;;;5.73;1.80;;;22.60;99.90;;;;;;4934043;29;20220;-69
2022/12/01 06:51:02;;;;;;;9.00;1.70;;;22.60;99.90;;;;;;4933812;29;20723;-69
2022/12/01 06:53:30;;;;;;;6.03;1.67;;;22.60;99.90;;;;;;4934804;29;20276;-69
2022/12/01 06:56:03;;;;;;;7.73;1.60;;;22.40;99.90;;;;;;4934958;29;20184;-69
2022/12/01 06:58:31;;;;;;;8.57;1.57;;;22.30;99.90;;;;;;4934760;29;20187;-68
2022/12/01 07:00:59;;;;;;;6.27;1.53;;;22.20;99.90;;;;;;4935088;29;20954;-70
2022/12/01 07:03:27;;;;;;;6.60;1.43;;;22.10;99.90;;;;;;4934426;29;20177;-70
2022/12/01 07:06:02;;;;;;;6.87;1.50;;;21.90;99.90;;;;;;4934328;29;20173;-69
2022/12/01 07:08:31;;;;;;;4.90;1.40;;;21.80;99.90;;;;;;4934757;29;20697;-69
2022/12/01 07:11:05;;;;;;;3.20;1.20;;;21.60;99.90;;;;;;4933345;29;20208;-69
2022/12/01 07:13:33;;;;;;;11.13;1.73;;;21.50;99.90;;;;;;4934143;29;20185;-69
2022/12/01 07:16:05;;;;;;;8.37;1.87;;;21.60;99.90;;;;;;4934659;29;20263;-70
2022/12/01 07:18:33;;;;;;;7.33;1.67;;;21.70;99.90;;;;;;4934802;29;20169;-68
2022/12/01 07:21:05;;;;;;;7.23;1.57;;;21.70;99.90;;;;;;4934392;29;20185;-68
2022/12/01 07:23:33;;;;;;;7.40;1.67;;;21.70;99.90;;;;;;4934742;29;20177;-70
2022/12/01 07:26:04;;;;;;;6.80;1.57;;;21.90;99.90;;;;;;4933985;29;20240;-70
2022/12/01 07:28:32;;;;;;;8.53;1.67;;;21.70;99.90;;;;;;4934131;29;20224;-69
2022/12/01 07:31:08;;;;;;;5.87;1.40;;;21.60;99.90;;;;;;4934183;29;20215;-68
2022/12/01 07:33:36;;;;;;;8.27;1.70;;;21.50;99.90;;;;;;4934229;29;20557;-68
2022/12/01 07:36:05;;;;;;;5.50;1.67;;;21.50;99.90;;;;;;4933888;29;20180;-69
2022/12/01 07:38:34;;;;;;;7.97;1.60;;;21.60;99.90;;;;;;4934353;29;20188;-68
2022/12/01 07:41:04;;;;;;;5.17;1.50;;;21.50;99.90;;;;;;4934114;29;20276;-69
2022/12/01 07:43:33;;;;;;;6.90;1.90;;;21.50;99.90;;;;;;4933618;29;20191;-68
2022/12/01 07:46:21;;;;;;;5.97;1.50;;;21.40;99.90;;;;;;4934016;29;20208;-70
2022/12/01 07:48:49;;;;;;;6.33;2.30;;;21.30;99.90;;;;;;4934091;29;20646;-69
2022/12/01 07:51:18;;;;;;;7.63;1.57;;;21.20;99.90;;;;;;4933827;29;20184;-69
2022/12/01 07:53:48;;;;;;;7.37;1.90;;;21.10;99.90;;;;;;4934353;29;20244;-69
2022/12/01 07:56:16;;;;;;;12.40;1.83;;;21.00;99.90;;;;;;4934286;29;20179;-69
2022/12/01 07:58:44;;;;;;;11.00;2.00;;;20.90;99.90;;;;;;4933696;29;20925;-69
2022/12/01 08:01:19;;;;;;;6.43;1.53;;;21.00;99.90;;;;;;4934738;29;20185;-69
2022/12/01 08:03:49;;;;;;;9.97;1.90;;;21.00;99.90;;;;;;4937311;29;20180;-69
2022/12/01 08:06:17;;;;;;;8.40;2.13;;;21.10;99.90;;;;;;4937274;29;20660;-69
2022/12/01 08:08:45;;;;;;;4.60;1.37;;;21.10;99.90;;;;;;4937176;29;20535;-69
2022/12/01 08:11:17;;;;;;;7.03;1.23;;;21.00;99.90;;;;;;4938415;29;20176;-69
2022/12/01 08:13:45;;;;;;;8.03;1.93;;;20.80;99.90;;;;;;4938732;29;20238;-69
2022/12/01 08:16:15;;;;;;;6.20;1.83;;;20.80;99.90;;;;;;4938573;29;20180;-69
2022/12/01 08:18:43;;;;;;;8.33;1.83;;;20.60;99.90;;;;;;4938131;29;20188;-69
2022/12/01 08:21:15;;;;;;;7.27;1.60;;;20.40;99.90;;;;;;4938044;29;20206;-69
2022/12/01 08:23:43;;;;;;;6.63;1.77;;;20.20;99.90;;;;;;4938235;29;20190;-69
2022/12/01 08:26:17;;;;;;;8.07;1.93;;;20.10;99.90;;;;;;4937672;29;20272;-69
2022/12/01 08:28:46;;;;;;;6.13;1.73;;;20.00;99.90;;;;;;4937674;29;20220;-69
2022/12/01 08:31:16;;;;;;;14.33;1.63;;;19.90;99.90;;;;;;4937842;29;20181;-69
2022/12/01 08:33:45;;;;;;;10.10;2.00;;;19.70;99.90;;;;;;4937978;29;20188;-69
2022/12/01 08:36:13;;;;;;;9.33;1.90;;;19.70;99.90;;;;;;4938033;29;20198;-69
2022/12/01 08:38:47;;;;;;;13.77;2.47;;;19.70;99.90;;;;;;4922886;29;20668;-70
2022/12/01 08:41:16;;;;;;;6.80;1.63;;;19.50;99.90;;;;;;4938691;29;20208;-69
2022/12/01 08:43:43;;;;;;;8.77;2.23;;;19.50;99.90;;;;;;4938437;29;20208;-69
2022/12/01 08:46:13;;;;;;;12.73;2.27;;;19.40;99.90;;;;;;4937588;29;20232;-69
2022/12/01 08:48:41;;;;;;;5.87;2.00;;;19.40;99.90;;;;;;4938004;29;20241;-69
2022/12/01 08:51:17;;;;;;;7.77;1.93;;;19.30;99.90;;;;;;4937979;29;20188;-69
2022/12/01 08:53:48;;;;;;;6.57;1.60;;;19.20;99.90;;;;;;4937698;29;20192;-69
2022/12/01 08:56:19;;;;;;;10.23;2.10;;;19.10;99.90;;;;;;4938411;29;20690;-69
2022/12/01 08:58:47;;;;;;;8.63;2.07;;;19.20;99.90;;;;;;4937422;29;20217;-69
2022/12/01 09:01:16;;;;;;;8.40;1.90;;;19.10;99.90;;;;;;4936506;29;20597;-69
2022/12/01 09:03:45;;;;;;;10.03;2.43;;;19.10;99.90;;;;;;4937675;29;20185;-69
2022/12/01 09:06:15;;;;;;;9.50;2.40;;;19.00;99.90;;;;;;4937587;29;20190;-69
2022/12/01 09:08:44;;;;;;;12.27;2.23;;;19.00;99.90;;;;;;4936733;29;20224;-69
2022/12/01 09:11:15;;;;;;;8.27;2.13;;;18.90;99.90;;;;;;4918266;29;20264;-70
2022/12/01 09:13:43;;;;;;;12.87;2.50;;;18.80;99.90;;;;;;4935839;29;20258;-69
2022/12/01 09:16:14;;;;;;;11.87;2.13;;;18.80;99.90;;;;;;4936147;29;20635;-70
2022/12/01 09:18:43;;;;;;;7.77;1.83;;;18.80;99.90;;;;;;4934360;29;20240;-68
2022/12/01 09:21:24;;;;;;;12.23;2.20;;;18.70;99.90;;;;;;4936188;29;20228;-70
2022/12/01 09:23:53;;;;;;;11.47;2.53;;;18.60;99.90;;;;;;4934307;29;20595;-69
2022/12/01 09:26:21;;;;;;;9.43;2.17;;;18.60;99.90;;;;;;4935400;29;20212;-69
2022/12/01 09:28:58;;;;;;;10.03;2.13;;;18.60;99.90;;;;;;4935766;29;20266;-69
2022/12/01 09:31:27;;;;;;;10.73;2.00;;;18.60;99.90;;;;;;4936067;29;20190;-70
2022/12/01 09:33:56;;;;;;;12.63;2.07;;;18.60;99.90;;;;;;4935721;29;20204;-68
2022/12/01 09:36:25;;;;;;;12.77;2.63;;;18.50;99.90;;;;;;4934829;29;20613;-69
2022/12/01 09:38:53;;;;;;;7.33;2.60;;;18.50;99.90;;;;;;4935825;29;20646;-68
2022/12/01 09:41:47;;;;;;;23.00;4.87;;;18.50;99.90;;;;;;4935561;29;20199;-69
2022/12/01 09:44:30;;;;;;;12.93;2.43;;;18.50;99.90;;;;;;4917112;29;20666;-71
2022/12/01 09:47:08;;;;;;;14.37;2.47;;;18.40;99.90;;;;;;4934074;29;20352;-68
2022/12/01 09:50:07;;;;;;;7.97;2.00;;;18.40;99.90;;;;;;4936627;29;20335;-69
2022/12/01 09:52:45;;;;;;;11.47;2.50;;;18.30;99.90;;;;;;4935473;29;20197;-68
2022/12/01 09:55:16;;;;;;;9.63;2.13;;;18.30;99.90;;;;;;4936863;29;20177;-69
2022/12/01 09:57:48;;;;;;;11.37;2.77;;;18.20;99.90;;;;;;4936803;29;20259;-73
2022/12/01 10:00:23;;;;;;;10.13;2.20;;;18.10;99.90;;;;;;4936310;29;20544;-70
2022/12/01 10:03:11;;;;;;;10.50;2.33;;;18.10;99.90;;;;;;4937017;29;20714;-69
2022/12/01 10:05:49;;;;;;;11.67;2.30;;;18.10;99.90;;;;;;4936913;29;20203;-68
2022/12/01 10:08:22;;;;;;;9.10;2.37;;;18.00;99.90;;;;;;4936730;29;20205;-70
2022/12/01 10:10:54;;;;;;;10.57;2.27;;;18.00;99.90;;;;;;4936473;29;20539;-69
2022/12/01 10:13:28;;;;;;;8.93;2.30;;;18.00;99.90;;;;;;4936546;29;20745;-70
2022/12/01 10:16:17;;;;;;;11.63;2.40;;;18.00;99.90;;;;;;4936788;29;20181;-69
2022/12/01 10:19:06;;;;;;;11.47;2.10;;;17.90;99.90;;;;;;4936711;29;20189;-69
2022/12/01 10:21:43;;;;;;;10.37;2.03;;;17.80;99.90;;;;;;4936214;29;20176;-69
2022/12/01 10:24:20;;;;;;;14.10;2.30;;;17.80;99.90;;;;;;4935237;29;20196;-70
2022/12/01 10:27:12;;;;;;;14.93;3.30;;;17.80;99.90;;;;;;4936117;29;20195;-70
2022/12/01 10:29:42;;;;;;;13.20;2.83;;;17.80;99.90;;;;;;4935795;29;20231;-70
2022/12/01 10:32:26;;;;;;;9.93;2.57;;;17.80;99.90;;;;;;4936214;29;20575;-69
2022/12/01 10:34:54;;;;;;;9.00;2.20;;;17.80;99.90;;;;;;4936180;29;20192;-70
2022/12/01 10:37:28;;;;;;;11.20;2.20;;;17.80;99.90;;;;;;4936343;29;20539;-70
2022/12/01 10:39:57;;;;;;;17.70;3.20;;;17.70;99.90;;;;;;4935920;29;20201;-70
2022/12/01 10:42:35;;;;;;;9.20;1.97;;;17.60;99.90;;;;;;4935839;29;20196;-70
2022/12/01 10:45:07;;;;;;;10.40;2.50;;;17.60;99.90;;;;;;4919019;29;20639;-69
2022/12/01 10:47:36;;;;;;;18.30;2.60;;;17.50;99.90;;;;;;4936185;29;20232;-70
2022/12/01 10:50:04;;;;;;;10.83;2.63;;;17.50;99.90;;;;;;4936219;29;20192;-70
2022/12/01 10:52:39;;;;;;;8.93;2.03;;;17.40;99.90;;;;;;4935504;29;20181;-70
2022/12/01 10:55:31;;;;;;;7.93;2.03;;;17.30;99.90;;;;;;4935745;29;20233;-70
2022/12/01 10:58:03;;;;;;;8.23;2.43;;;17.30;99.90;;;;;;4935468;29;20199;-70
2022/12/01 11:00:38;;;;;;;15.10;3.00;;;17.20;99.90;;;;;;4934264;29;20772;-70
2022/12/01 11:03:17;;;;;;;11.13;2.13;;;17.20;99.90;;;;;;4935939;29;20563;-71
2022/12/01 11:05:51;;;;;;;9.70;2.13;;;17.10;99.90;;;;;;4935406;29;20176;-70
2022/12/01 11:08:24;;;;;;;9.37;2.50;;;17.10;99.90;;;;;;4936019;29;20693;-70
2022/12/01 11:10:52;;;;;;;14.23;3.03;;;17.00;99.90;;;;;;4935860;29;20647;-69
2022/12/01 11:13:33;;;;;;;10.37;2.53;;;16.90;99.90;;;;;;4935825;29;20196;-68
2022/12/01 11:16:03;;;;;;;9.53;2.03;;;16.80;99.90;;;;;;4929054;29;20267;-68
2022/12/01 11:18:38;;;;;;;10.00;2.17;;;16.80;99.90;;;;;;4935154;29;20184;-68
2022/12/01 11:21:24;;;;;;;12.37;2.37;;;16.80;99.90;;;;;;4934901;29;20286;-68
2022/12/01 11:23:54;;;;;;;8.50;2.57;;;16.80;99.90;;;;;;4936182;29;20268;-70
2022/12/01 11:26:29;;;;;;;8.70;2.30;;;16.80;99.90;;;;;;4935136;29;20185;-68
2022/12/01 11:29:05;;;;;;;7.90;2.50;;;16.70;99.90;;;;;;4935408;29;20224;-69
2022/12/01 11:31:41;;;;;;;11.33;2.90;;;16.60;99.90;;;;;;4935938;29;20519;-68
2022/12/01 11:34:20;;;;;;;7.17;2.30;;;16.60;99.90;;;;;;4950431;29;20191;-69
2022/12/01 11:36:51;;;;;;;13.50;2.73;;;16.50;99.90;;;;;;4937788;29;20192;-69
2022/12/01 11:39:38;;;;;;;12.00;3.00;;;16.40;99.90;;;;;;4939326;29;20184;-69
2022/12/01 11:42:13;;;;;;;14.10;3.23;;;16.40;99.90;;;;;;4940009;29;20643;-70
2022/12/01 11:44:52;;;;;;;10.90;2.60;;;16.40;99.90;;;;;;4938932;29;20183;-70
2022/12/01 11:47:23;;;;;;;12.70;3.40;;;16.30;99.90;;;;;;4938750;29;20220;-70
2022/12/01 11:50:26;;;;;;;8.93;2.70;;;16.20;99.90;;;;;;4939133;29;20199;-70
2022/12/01 11:52:54;;;;;;;16.67;3.67;;;16.20;99.90;;;;;;4939157;29;20211;-70
2022/12/01 11:55:25;;;;;;;7.27;2.10;;;16.00;99.90;;;;;;4939370;29;20267;-69
2022/12/01 11:57:56;;;;;;;12.13;2.63;;;16.00;99.90;;;;;;4939066;29;20192;-70
2022/12/01 12:00:28;;;;;;;10.10;2.90;;;16.00;99.90;;;;;;4939242;29;20185;-69
2022/12/01 12:03:13;;;;;;;10.60;3.10;;;16.00;99.90;;;;;;4939330;29;20184;-69
2022/12/01 12:06:19;;;;;;;10.13;2.40;;;15.90;99.90;;;;;;4938681;29;20228;-68
2022/12/01 12:09:04;;;;;;;12.27;3.30;;;15.80;99.90;;;;;;4914282;29;20301;-70
2022/12/01 12:11:49;;;;;;;15.73;3.83;;;15.80;99.90;;;;;;4920240;29;20620;-69
2022/12/01 12:14:37;;;;;;;8.23;2.97;;;15.70;99.90;;;;;;4919681;29;20177;-69
2022/12/01 12:17:36;;;;;;;12.13;3.17;;;15.70;99.90;;;;;;4925785;29;20188;-69
2022/12/01 12:20:40;;;;;;;9.43;2.53;;;15.70;99.90;;;;;;4939030;29;20647;-70
2022/12/01 12:23:25;;;;;;;12.47;3.03;;;15.60;99.90;;;;;;4939179;29;20183;-69
2022/12/01 12:26:19;;;;;;;11.43;2.90;;;15.50;99.90;;;;;;4938557;29;20176;-69
2022/12/01 12:29:10;;;;;;;11.07;2.77;;;15.50;99.90;;;;;;4937896;29;20274;-69
2022/12/01 12:32:22;;;;;;;10.47;2.90;;;15.40;99.90;;;;;;4939153;29;20595;-70
2022/12/01 12:35:18;;;;;;;7.90;2.57;;;15.40;99.90;;;;;;4935689;29;20197;-69
2022/12/01 12:37:51;;;;;;;7.33;2.43;;;15.40;99.90;;;;;;4938292;29;20569;-68
2022/12/01 12:40:36;;;;;;;10.63;2.83;;;15.40;99.90;;;;;;4938406;29;20259;-68
2022/12/01 12:43:23;;;;;;;16.20;2.60;;;15.40;99.90;;;;;;4937580;29;20180;-68
2022/12/01 12:46:07;;;;;;;8.37;2.53;;;15.50;99.90;;;;;;4938796;29;20180;-68
2022/12/01 12:48:46;;;;;;;8.67;2.43;;;15.50;99.90;;;;;;4937522;29;20224;-69
2022/12/01 12:51:16;;;;;;;13.87;2.47;;;15.60;99.90;;;;;;4936499;29;20184;-68
2022/12/01 12:54:07;;;;;;;6.17;2.60;;;15.70;99.90;;;;;;4937979;29;20189;-69
2022/12/01 12:56:36;;;;;;;7.07;2.60;;;15.70;99.90;;;;;;4937541;29;20183;-68
2022/12/01 12:59:15;;;;;;;8.07;2.50;;;15.90;99.90;;;;;;4937947;29;20176;-69
2022/12/01 13:01:55;;;;;;;11.00;3.10;;;15.90;99.90;;;;;;4937829;29;20222;-69
2022/12/01 13:04:31;;;;;;;10.83;2.70;;;16.00;99.90;;;;;;4936976;29;20192;-68
2022/12/01 13:07:13;;;;;;;10.47;2.50;;;16.00;99.90;;;;;;4937463;29;20196;-70
2022/12/01 13:09:49;;;;;;;14.43;3.50;;;16.10;99.90;;;;;;4937526;29;20222;-68
2022/12/01 13:12:29;;;;;;;8.27;2.47;;;16.10;99.90;;;;;;4937640;29;20211;-69
2022/12/01 13:15:14;;;;;;;13.17;2.63;;;16.10;99.90;;;;;;4937881;29;20258;-69
2022/12/01 13:17:49;;;;;;;9.43;2.53;;;16.10;99.90;;;;;;4937277;29;20220;-69
2022/12/01 13:20:23;;;;;;;11.20;2.63;;;16.20;99.90;;;;;;4937746;29;20208;-69
2022/12/01 13:22:53;;;;;;;8.17;2.23;;;16.20;99.90;;;;;;4937567;29;20175;-69